createdAt,value
2022-09-27T00:01:24.187Z,1.30
2022-09-27T00:03:55.304Z,1.10
2022-09-27T00:06:27.627Z,1.03
2022-09-27T00:22:10.684Z,1.50
2022-09-27T00:24:38.210Z,1.10
2022-09-27T00:27:05.548Z,1.40
2022-09-27T00:29:32.996Z,1.57
2022-09-27T00:32:03.196Z,1.00
2022-09-27T00:34:30.607Z,1.73
2022-09-27T00:36:58.194Z,1.23
2022-09-27T00:39:25.670Z,1.23
2022-09-27T00:41:53.107Z,1.50
2022-09-27T00:44:26.872Z,1.10
2022-09-27T00:47:01.208Z,1.13
2022-09-27T00:49:33.542Z,1.40
2022-09-27T00:52:16.091Z,1.10
2022-09-27T00:54:45.309Z,1.30
2022-09-27T00:57:12.659Z,1.57
2022-09-27T00:59:42.368Z,1.20
2022-09-27T01:02:09.885Z,1.07
2022-09-27T01:04:38.320Z,1.10
2022-09-27T01:07:05.697Z,1.20
2022-09-27T01:09:33.431Z,1.10
2022-09-27T01:12:09.954Z,1.00
2022-09-27T01:15:09.608Z,1.00
2022-09-27T01:17:49.211Z,0.83
2022-09-27T01:20:16.628Z,1.10
2022-09-27T01:23:02.485Z,0.93
2022-09-27T01:25:29.860Z,0.80
2022-09-27T01:28:09.085Z,0.90
2022-09-27T01:30:46.446Z,0.90
2022-09-27T01:33:18.733Z,0.80
2022-09-27T01:35:48.994Z,0.83
2022-09-27T01:38:24.773Z,0.87
2022-09-27T01:40:57.621Z,0.80
2022-09-27T01:43:42.742Z,0.60
2022-09-27T01:46:12.668Z,0.90
2022-09-27T01:48:45.554Z,0.80
2022-09-27T01:51:20.952Z,0.60
2022-09-27T01:53:49.485Z,0.83
2022-09-27T01:56:41.816Z,0.90
2022-09-27T01:59:13.734Z,0.80
2022-09-27T02:01:42.609Z,1.10
2022-09-27T02:14:40.150Z,1.27
2022-09-27T02:28:06.077Z,0.90
2022-09-27T02:30:33.569Z,1.00
2022-09-27T02:33:01.061Z,1.00
2022-09-27T02:35:30.512Z,1.00
2022-09-27T02:37:58.263Z,0.87
2022-09-27T02:40:27.038Z,1.00
2022-09-27T02:42:54.681Z,1.17
2022-09-27T02:45:22.050Z,0.80
2022-09-27T02:47:55.916Z,1.10
2022-09-27T02:50:41.724Z,0.90
2022-09-27T02:53:19.861Z,0.87
2022-09-27T02:55:52.430Z,1.00
2022-09-27T02:58:19.748Z,1.23
2022-09-27T03:00:57.431Z,1.30
2022-09-27T03:03:32.596Z,0.87
2022-09-27T03:06:05.184Z,1.13
2022-09-27T03:08:32.608Z,1.10
2022-09-27T03:11:00.018Z,1.00
2022-09-27T03:13:28.022Z,1.00
2022-09-27T03:15:59.349Z,1.03
2022-09-27T03:18:28.752Z,1.37
2022-09-27T03:20:56.197Z,1.13
2022-09-27T03:23:23.606Z,1.20
2022-09-27T03:25:51.870Z,1.10
2022-09-27T03:28:19.464Z,1.30
2022-09-27T03:30:47.234Z,0.90
2022-09-27T03:33:14.657Z,1.10
2022-09-27T03:35:43.242Z,1.10
2022-09-27T03:38:11.058Z,1.10
2022-09-27T03:40:38.565Z,1.10
2022-09-27T03:43:05.940Z,1.27
2022-09-27T03:45:33.315Z,1.20
2022-09-27T03:48:00.908Z,1.17
2022-09-27T03:50:28.219Z,1.10
2022-09-27T03:52:55.668Z,1.10
2022-09-27T03:55:23.263Z,0.77
2022-09-27T03:57:50.615Z,0.83
2022-09-27T04:00:18.114Z,1.00
2022-09-27T04:02:45.561Z,0.90
2022-09-27T04:05:12.931Z,1.03
2022-09-27T04:07:40.282Z,0.93
2022-09-27T04:10:07.856Z,0.80
2022-09-27T04:12:35.334Z,1.10
2022-09-27T04:15:02.735Z,0.90
2022-09-27T04:17:30.102Z,0.90
2022-09-27T04:19:57.618Z,0.67
2022-09-27T04:22:24.924Z,1.07
2022-09-27T04:24:52.316Z,0.90
2022-09-27T04:27:19.598Z,0.90
2022-09-27T04:29:47.088Z,1.03
2022-09-27T04:32:14.834Z,1.20
2022-09-27T04:35:01.024Z,0.90
2022-09-27T04:37:28.516Z,0.90
2022-09-27T04:39:55.864Z,0.97
2022-09-27T04:42:23.184Z,0.90
2022-09-27T04:44:50.567Z,0.60
2022-09-27T04:47:19.150Z,0.90
2022-09-27T04:49:46.861Z,1.00
2022-09-27T04:52:15.546Z,1.10
2022-09-27T04:54:42.980Z,0.93
2022-09-27T04:57:10.390Z,0.83
2022-09-27T04:59:37.723Z,0.83
2022-09-27T05:02:05.996Z,0.97
2022-09-27T05:04:33.334Z,0.73
2022-09-27T05:07:00.716Z,0.50
2022-09-27T05:09:28.517Z,0.90
2022-09-27T05:11:55.853Z,0.60
2022-09-27T05:14:23.175Z,0.70
2022-09-27T05:16:51.077Z,0.90
2022-09-27T05:19:18.449Z,0.80
2022-09-27T05:21:45.793Z,0.73
2022-09-27T05:24:13.190Z,0.70
2022-09-27T05:26:41.952Z,0.87
2022-09-27T05:29:09.500Z,0.80
2022-09-27T05:31:36.771Z,0.90
2022-09-27T05:34:04.126Z,0.70
2022-09-27T05:36:32.626Z,0.60
2022-09-27T05:38:59.930Z,0.87
2022-09-27T05:41:27.388Z,0.60
2022-09-27T05:43:55.764Z,0.73
2022-09-27T05:46:23.117Z,0.83
2022-09-27T05:48:50.503Z,0.60
2022-09-27T05:51:19.303Z,0.53
2022-09-27T05:53:46.563Z,0.60
2022-09-27T05:56:13.925Z,0.57
2022-09-27T05:58:41.344Z,0.60
2022-09-27T06:01:08.778Z,0.70
2022-09-27T06:03:36.414Z,0.53
2022-09-27T06:06:06.509Z,0.70
2022-09-27T06:08:34.945Z,0.60
2022-09-27T06:11:06.310Z,0.50
2022-09-27T06:13:34.100Z,0.50
2022-09-27T06:16:01.569Z,0.70
2022-09-27T06:18:28.878Z,0.60
2022-09-27T06:20:56.279Z,0.80
2022-09-27T06:23:24.246Z,0.57
2022-09-27T06:25:52.187Z,0.57
2022-09-27T06:28:19.824Z,0.40
2022-09-27T06:30:48.378Z,0.50
2022-09-27T06:33:20.293Z,0.40
2022-09-27T06:35:49.251Z,0.50
2022-09-27T06:38:17.845Z,0.33
2022-09-27T06:40:45.722Z,0.60
2022-09-27T06:43:17.292Z,0.70
2022-09-27T06:45:45.061Z,0.60
2022-09-27T06:48:13.175Z,0.70
2022-09-27T06:50:41.950Z,0.50
2022-09-27T06:53:10.761Z,0.50
2022-09-27T06:55:38.487Z,0.30
2022-09-27T06:58:24.606Z,0.37
2022-09-27T07:00:53.442Z,0.97
2022-09-27T07:03:23.100Z,0.50
2022-09-27T07:05:57.390Z,0.20
2022-09-27T07:08:27.258Z,0.30
2022-09-27T07:10:55.601Z,0.23
2022-09-27T07:13:23.088Z,0.30
2022-09-27T07:15:50.537Z,0.20
2022-09-27T07:18:17.878Z,0.30
2022-09-27T07:20:45.318Z,0.30
2022-09-27T07:23:16.105Z,0.40
2022-09-27T07:25:43.587Z,0.40
2022-09-27T07:28:19.707Z,0.30
2022-09-27T07:30:49.218Z,0.23
2022-09-27T07:33:16.588Z,0.20
2022-09-27T07:35:43.903Z,0.30
2022-09-27T07:38:16.633Z,0.27
2022-09-27T07:40:44.405Z,0.40
2022-09-27T07:43:12.437Z,0.33
2022-09-27T07:45:40.118Z,0.30
2022-09-27T07:48:08.283Z,0.30
2022-09-27T07:50:36.038Z,0.23
2022-09-27T07:53:04.920Z,0.20
2022-09-27T07:55:32.667Z,0.30
2022-09-27T07:58:07.330Z,0.10
2022-09-27T08:00:34.708Z,0.20
2022-09-27T08:03:06.097Z,0.20
2022-09-27T08:05:34.780Z,0.20
2022-09-27T08:08:02.236Z,0.10
2022-09-27T08:10:31.732Z,0.20
2022-09-27T08:13:00.020Z,0.27
2022-09-27T08:15:28.671Z,0.30
2022-09-27T08:17:56.042Z,0.27
2022-09-27T08:20:23.473Z,0.20
2022-09-27T08:22:50.837Z,0.27
2022-09-27T08:25:18.171Z,0.10
2022-09-27T08:27:45.651Z,0.20
2022-09-27T08:30:13.129Z,0.10
2022-09-27T08:32:40.485Z,0.20
2022-09-27T08:35:08.201Z,0.10
2022-09-27T08:37:35.648Z,0.20
2022-09-27T08:40:03.709Z,0.10
2022-09-27T08:42:43.119Z,0.10
2022-09-27T08:45:26.227Z,0.20
2022-09-27T08:48:03.709Z,0.10
2022-09-27T08:50:40.241Z,0.10
2022-09-27T08:53:26.102Z,0.20
2022-09-27T08:55:54.721Z,0.10
2022-09-27T08:58:26.524Z,0.10
2022-09-27T09:00:55.573Z,0.20
2022-09-27T09:03:24.959Z,0.10
2022-09-27T09:05:58.135Z,0.10
2022-09-27T09:08:32.224Z,0.13
2022-09-27T09:11:36.701Z,0.20
2022-09-27T09:14:22.671Z,0.10
2022-09-27T09:17:13.235Z,0.10
2022-09-27T09:19:52.667Z,0.20
2022-09-27T09:22:35.255Z,0.10
2022-09-27T09:25:08.830Z,0.20
2022-09-27T09:27:38.970Z,0.10
2022-09-27T09:30:09.384Z,0.10
2022-09-27T09:32:36.726Z,0.10
2022-09-27T09:35:16.104Z,0.20
2022-09-27T09:37:49.759Z,0.10
2022-09-27T09:40:28.802Z,0.10
2022-09-27T09:43:01.020Z,0.13
2022-09-27T09:45:37.169Z,0.10
2022-09-27T09:48:07.575Z,0.20
2022-09-27T09:50:49.626Z,0.10
2022-09-27T09:53:22.620Z,0.10
2022-09-27T09:56:04.282Z,0.10
2022-09-27T09:58:31.627Z,0.10
2022-09-27T10:01:01.426Z,0.10
2022-09-27T10:03:28.852Z,0.10
2022-09-27T10:05:56.182Z,0.10
2022-09-27T10:08:24.599Z,0.10
2022-09-27T10:10:52.068Z,0.10
2022-09-27T10:13:21.473Z,0.10
2022-09-27T10:15:56.018Z,0.20
2022-09-27T10:18:23.898Z,0.00
2022-09-27T10:20:56.695Z,0.10
2022-09-27T10:23:25.396Z,0.07
2022-09-27T10:25:52.816Z,0.10
2022-09-27T10:28:33.154Z,0.10
2022-09-27T10:31:02.799Z,0.10
2022-09-27T10:33:31.840Z,0.13
2022-09-27T10:35:59.912Z,0.10
2022-09-27T10:38:31.675Z,0.10
2022-09-27T10:41:16.787Z,0.10
2022-09-27T10:43:44.208Z,0.10
2022-09-27T10:46:32.882Z,0.10
2022-09-27T10:49:16.803Z,0.10
2022-09-27T10:51:44.636Z,0.10
2022-09-27T10:54:22.498Z,0.20
2022-09-27T10:57:00.765Z,0.10
2022-09-27T10:59:30.858Z,0.10
2022-09-27T11:01:59.142Z,0.10
2022-09-27T11:04:34.704Z,0.10
2022-09-27T11:07:12.744Z,0.20
2022-09-27T11:09:54.762Z,0.10
2022-09-27T11:12:23.220Z,0.20
2022-09-27T11:14:57.193Z,0.10
2022-09-27T11:17:28.715Z,0.10
2022-09-27T11:19:56.472Z,0.10
2022-09-27T11:22:32.968Z,0.20
2022-09-27T11:25:08.438Z,0.10
2022-09-27T11:27:42.005Z,0.20
2022-09-27T11:30:12.328Z,0.10
2022-09-27T11:32:58.075Z,0.10
2022-09-27T11:35:34.198Z,0.10
2022-09-27T11:38:04.788Z,0.10
2022-09-27T11:40:51.333Z,0.20
2022-09-27T11:43:29.800Z,0.10
2022-09-27T11:48:47.241Z,0.20
2022-09-27T11:51:28.708Z,0.10
2022-09-27T11:54:14.848Z,0.10
2022-09-27T11:56:51.648Z,0.30
2022-09-27T11:59:22.521Z,0.10
2022-09-27T12:01:57.278Z,0.10
2022-09-27T12:04:38.548Z,0.17
2022-09-27T12:07:11.651Z,0.10
2022-09-27T12:09:41.278Z,0.10
2022-09-27T12:12:11.334Z,0.00
2022-09-27T12:14:56.623Z,0.10
2022-09-27T12:17:28.326Z,0.13
2022-09-27T12:19:58.443Z,0.20
2022-09-27T12:22:57.452Z,0.10
2022-09-27T12:25:25.714Z,0.13
2022-09-27T12:27:59.303Z,0.10
2022-09-27T12:30:26.968Z,0.10
2022-09-27T12:32:58.864Z,1.27
2022-09-27T12:35:29.103Z,0.20
2022-09-27T12:38:15.138Z,0.10
2022-09-27T12:40:48.090Z,0.10
2022-09-27T12:43:32.810Z,0.10
2022-09-27T12:46:15.517Z,0.20
2022-09-27T12:49:09.416Z,0.10
2022-09-27T12:51:38.781Z,0.10
2022-09-27T12:54:15.327Z,0.10
2022-09-27T12:57:01.218Z,0.10
2022-09-27T12:59:37.011Z,0.10
2022-09-27T13:02:17.480Z,0.10
2022-09-27T13:05:04.049Z,0.10
2022-09-27T13:07:34.355Z,0.20
2022-09-27T13:10:20.057Z,0.10
2022-09-27T13:12:53.487Z,0.10
2022-09-27T13:15:32.476Z,0.20
2022-09-27T13:18:01.937Z,0.10
2022-09-27T13:20:32.272Z,0.10
2022-09-27T13:23:00.685Z,0.10
2022-09-27T13:25:46.618Z,0.20
2022-09-27T13:28:32.085Z,0.13
2022-09-27T13:31:00.402Z,0.20
2022-09-27T13:33:35.428Z,0.20
2022-09-27T13:36:24.019Z,0.30
2022-09-27T13:39:06.478Z,0.10
2022-09-27T13:41:39.690Z,0.13
2022-09-27T13:44:16.329Z,0.10
2022-09-27T13:46:53.372Z,0.10
2022-09-27T13:49:20.950Z,0.20
2022-09-27T13:51:53.424Z,0.10
2022-09-27T13:54:39.154Z,0.20
2022-09-27T13:57:26.365Z,0.20
2022-09-27T13:59:55.572Z,0.20
2022-09-27T14:02:37.221Z,0.10
2022-09-27T14:05:05.853Z,0.13
2022-09-27T14:07:42.080Z,0.20
2022-09-27T14:10:15.050Z,0.17
2022-09-27T14:12:43.360Z,0.13
2022-09-27T14:15:17.444Z,0.10
2022-09-27T14:17:47.694Z,0.20
2022-09-27T14:20:32.053Z,0.30
2022-09-27T14:22:59.656Z,0.37
2022-09-27T14:25:27.103Z,0.20
2022-09-27T14:27:54.427Z,0.13
2022-09-27T14:30:23.048Z,0.17
2022-09-27T14:32:51.491Z,0.20
2022-09-27T14:35:38.832Z,0.20
2022-09-27T14:38:33.237Z,0.20
2022-09-27T14:41:08.040Z,0.20
2022-09-27T14:43:36.630Z,0.20
2022-09-27T14:46:08.891Z,0.10
2022-09-27T14:48:37.444Z,0.20
2022-09-27T14:51:19.430Z,0.30
2022-09-27T14:53:51.668Z,0.27
2022-09-27T14:56:27.733Z,0.17
2022-09-27T14:59:02.326Z,0.23
2022-09-27T15:01:30.614Z,0.20
2022-09-27T15:04:04.693Z,0.20
2022-09-27T15:06:32.312Z,0.20
2022-09-27T15:09:00.654Z,0.20
2022-09-27T15:11:29.946Z,0.20
2022-09-27T15:13:58.745Z,0.20
2022-09-27T15:16:26.785Z,0.20
2022-09-27T15:19:03.619Z,0.20
2022-09-27T15:21:35.394Z,0.20
2022-09-27T15:24:03.169Z,0.10
2022-09-27T15:26:45.307Z,0.30
2022-09-27T15:29:30.608Z,0.40
2022-09-27T15:32:01.650Z,0.20
2022-09-27T15:34:30.083Z,0.30
2022-09-27T15:37:00.970Z,0.97
2022-09-27T15:39:38.701Z,0.30
2022-09-27T15:42:10.292Z,0.10
2022-09-27T15:44:40.886Z,0.30
2022-09-27T15:47:28.132Z,0.30
2022-09-27T15:49:55.497Z,0.30
2022-09-27T15:52:58.299Z,0.20
2022-09-27T15:55:26.944Z,0.30
2022-09-27T15:58:02.159Z,0.30
2022-09-27T16:00:30.407Z,0.30
2022-09-27T16:02:57.950Z,0.10
2022-09-27T16:05:27.061Z,0.20
2022-09-27T16:07:54.959Z,0.10
2022-09-27T16:10:27.932Z,0.20
2022-09-27T16:12:55.217Z,0.20
2022-09-27T16:15:22.550Z,0.20
2022-09-27T16:17:49.887Z,0.20
2022-09-27T16:20:17.586Z,0.27
2022-09-27T16:22:44.898Z,0.30
2022-09-27T16:25:12.396Z,0.17
2022-09-27T16:27:39.815Z,1.03
2022-09-27T16:30:08.363Z,0.30
2022-09-27T16:32:41.219Z,0.20
2022-09-27T16:35:08.900Z,0.20
2022-09-27T16:37:36.739Z,0.27
2022-09-27T16:40:05.235Z,0.20
2022-09-27T16:42:32.587Z,0.20
2022-09-27T16:45:04.806Z,0.30
2022-09-27T16:47:35.563Z,0.10
2022-09-27T16:50:21.698Z,0.30
2022-09-27T16:52:50.150Z,0.20
2022-09-27T16:55:20.977Z,0.20
2022-09-27T16:57:48.953Z,0.20
2022-09-27T17:00:16.791Z,0.30
2022-09-27T17:02:47.093Z,0.20
2022-09-27T17:05:15.036Z,0.20
2022-09-27T17:07:42.842Z,0.20
2022-09-27T17:10:10.251Z,0.20
2022-09-27T17:12:37.603Z,0.30
2022-09-27T17:15:05.123Z,0.30
2022-09-27T17:17:32.491Z,0.20
2022-09-27T17:19:59.861Z,0.20
2022-09-27T17:22:27.180Z,0.20
2022-09-27T17:24:54.506Z,0.13
2022-09-27T17:27:25.815Z,0.30
2022-09-27T17:29:53.476Z,0.10
2022-09-27T17:32:26.679Z,0.30
2022-09-27T17:34:54.392Z,0.30
2022-09-27T17:37:21.711Z,0.30
2022-09-27T17:39:49.026Z,0.20
2022-09-27T17:42:18.940Z,0.37
2022-09-27T17:44:46.571Z,0.20
2022-09-27T17:47:32.829Z,0.30
2022-09-27T17:50:18.840Z,0.10
2022-09-27T17:52:46.189Z,0.20
2022-09-27T17:55:14.952Z,0.20
2022-09-27T17:57:42.306Z,0.13
2022-09-27T18:00:09.980Z,0.30
2022-09-27T18:02:37.410Z,0.20
2022-09-27T18:05:05.471Z,0.20
2022-09-27T18:07:33.666Z,0.20
2022-09-27T18:10:01.045Z,0.17
2022-09-27T18:12:35.237Z,0.20
2022-09-27T18:15:02.902Z,0.30
2022-09-27T18:17:30.728Z,0.37
2022-09-27T18:20:00.498Z,0.37
2022-09-27T18:22:31.239Z,0.33
2022-09-27T18:24:58.689Z,0.10
2022-09-27T18:27:25.990Z,0.30
2022-09-27T18:29:54.170Z,0.20
2022-09-27T18:32:21.552Z,0.30
2022-09-27T18:34:48.992Z,0.20
2022-09-27T18:37:16.410Z,0.27
2022-09-27T18:39:43.678Z,0.20
2022-09-27T18:42:11.086Z,0.30
2022-09-27T18:44:38.427Z,0.20
2022-09-27T18:47:05.800Z,0.33
2022-09-27T18:49:34.200Z,0.20
2022-09-27T18:52:02.708Z,0.20
2022-09-27T18:54:33.123Z,0.27
2022-09-27T18:57:00.463Z,0.20
2022-09-27T18:59:29.833Z,0.20
2022-09-27T19:01:57.232Z,0.20
2022-09-27T19:04:25.884Z,0.10
2022-09-27T19:06:53.996Z,0.10
2022-09-27T19:09:21.492Z,0.40
2022-09-27T19:11:48.939Z,0.20
2022-09-27T19:14:17.652Z,0.20
2022-09-27T19:16:47.252Z,0.20
2022-09-27T19:19:15.496Z,0.20
2022-09-27T19:21:42.964Z,0.20
2022-09-27T19:24:10.362Z,0.10
2022-09-27T19:26:37.672Z,0.23
2022-09-27T19:29:06.542Z,0.20
2022-09-27T19:31:35.791Z,0.10
2022-09-27T19:34:03.839Z,0.23
2022-09-27T19:36:31.324Z,0.23
2022-09-27T19:38:59.010Z,0.13
2022-09-27T19:41:27.036Z,0.30
2022-09-27T19:43:55.343Z,0.20
2022-09-27T19:46:24.015Z,0.27
2022-09-27T19:48:51.843Z,0.20
2022-09-27T19:51:20.163Z,0.20
2022-09-27T19:53:47.615Z,0.20
2022-09-27T19:56:15.306Z,0.23
2022-09-27T19:58:43.328Z,0.20
2022-09-27T20:01:20.956Z,0.20
2022-09-27T20:03:49.152Z,0.20
2022-09-27T20:06:17.720Z,0.23
2022-09-27T20:08:45.744Z,0.30
2022-09-27T20:11:17.150Z,0.20
2022-09-27T20:13:44.867Z,0.20
2022-09-27T20:16:13.872Z,0.30
2022-09-27T20:18:42.331Z,0.20
2022-09-27T20:21:09.589Z,0.10
2022-09-27T20:23:37.376Z,0.20
2022-09-27T20:26:08.962Z,0.20
2022-09-27T20:28:37.066Z,0.30
2022-09-27T20:31:05.179Z,0.20
2022-09-27T20:33:41.694Z,0.20
2022-09-27T20:36:16.324Z,0.10
2022-09-27T20:38:44.672Z,0.20
2022-09-27T20:41:12.640Z,0.30
2022-09-27T20:43:40.257Z,0.30
2022-09-27T20:46:08.768Z,0.27
2022-09-27T20:48:36.553Z,0.30
2022-09-27T20:51:05.086Z,0.33
2022-09-27T20:53:32.850Z,0.30
2022-09-27T20:56:02.932Z,0.23
2022-09-27T20:58:30.828Z,0.40
2022-09-27T21:00:58.958Z,0.20
2022-09-27T21:03:26.361Z,0.30
2022-09-27T21:05:55.025Z,0.30
2022-09-27T21:08:22.595Z,0.40
2022-09-27T21:10:53.940Z,0.20
2022-09-27T21:13:21.638Z,0.20
2022-09-27T21:15:49.046Z,0.20
2022-09-27T21:18:16.505Z,0.20
2022-09-27T21:20:44.821Z,0.20
2022-09-27T21:23:12.092Z,0.30
2022-09-27T21:25:39.410Z,0.40
2022-09-27T21:28:06.739Z,0.40
2022-09-27T21:30:36.088Z,0.30
2022-09-27T21:33:03.448Z,0.20
2022-09-27T21:35:30.742Z,0.33
2022-09-27T21:37:58.124Z,0.30
2022-09-27T21:40:25.492Z,0.20
2022-09-27T21:42:57.498Z,0.20
2022-09-27T21:45:25.182Z,0.20
2022-09-27T21:47:52.495Z,0.20
2022-09-27T21:50:19.788Z,0.30
2022-09-27T21:52:47.122Z,0.30
2022-09-27T21:55:14.510Z,0.30
2022-09-27T21:57:41.854Z,0.30
2022-09-27T22:00:09.662Z,0.20
2022-09-27T22:02:36.949Z,0.40
2022-09-27T22:05:04.666Z,0.20
2022-09-27T22:07:31.984Z,0.20
2022-09-27T22:09:59.278Z,0.30
2022-09-27T22:12:26.586Z,0.30
2022-09-27T22:14:53.952Z,0.33
2022-09-27T22:17:21.274Z,0.30
2022-09-27T22:19:48.628Z,0.20
2022-09-27T22:22:15.981Z,0.30
2022-09-27T22:24:43.213Z,0.20
2022-09-27T22:27:10.434Z,0.30
2022-09-27T22:29:37.717Z,0.40
2022-09-27T22:32:05.000Z,0.30
2022-09-27T22:34:32.315Z,0.20
2022-09-27T22:37:00.939Z,0.27
2022-09-27T22:39:28.993Z,0.37
2022-09-27T22:41:56.373Z,0.40
2022-09-27T22:44:24.266Z,0.30
2022-09-27T22:46:51.612Z,0.20
2022-09-27T22:49:18.951Z,0.30
2022-09-27T22:51:46.349Z,0.27
2022-09-27T22:54:13.841Z,0.30
2022-09-27T22:56:41.207Z,0.30
2022-09-27T22:59:08.566Z,0.40
2022-09-27T23:01:36.858Z,0.20
2022-09-27T23:04:04.357Z,0.20
2022-09-27T23:06:33.403Z,0.30
2022-09-27T23:09:02.709Z,0.43
2022-09-27T23:11:31.059Z,0.30
2022-09-27T23:13:58.397Z,0.47
2022-09-27T23:16:25.945Z,0.30
2022-09-27T23:18:54.374Z,0.40
2022-09-27T23:21:26.106Z,0.40
2022-09-27T23:23:55.282Z,0.30
2022-09-27T23:26:25.956Z,0.50
2022-09-27T23:28:54.425Z,0.50
2022-09-27T23:31:23.874Z,0.50
2022-09-27T23:33:52.171Z,0.40
2022-09-27T23:36:20.813Z,0.60
2022-09-27T23:38:48.727Z,0.53
2022-09-27T23:41:16.755Z,0.50
2022-09-27T23:43:44.578Z,0.60
2022-09-27T23:46:12.393Z,0.43
2022-09-27T23:48:40.055Z,0.50
2022-09-27T23:51:10.080Z,0.53
2022-09-27T23:53:37.973Z,0.70
2022-09-27T23:56:05.341Z,0.60
2022-09-27T23:58:33.380Z,0.57
